Friday, November 28, 2014
09:47 UTC
  |  Log In   |  Register Free
Airport Search:

La Porte Municipal Airport
(T41)

La Porte Municipal Airport Diagram
No Airport Diagram Available

FAA data valid effective November 13, 2014 - January 08, 2015 (unless otherwise noted).

 
 
 
 
 
 
 
 
 
 
 
 
 
 

Current Aviation Weather for La Porte Municipal Airport (T41)

METAR data is unavailable for T41. The nearest METAR location is at KEFD (6.2 nm SW from T41).

The most recent METAR observation for KEFD was updated at: 0912
METAR Summary (Translated METAR)
KEFD
280850Z 00000KT 10SM CLR 09/03 A3039
(6.2 nm SW from T41)
KHOU
280853Z 06003KT 10SM CLR 06/05 A3037 RMK AO2 SLP290 T00610050 56009
(11.3 nm SW from T41)
TAF Summary (Translated TAF)
KEFD
2804/2910 08009KT 9999 SKC QNH3036INS BECMG 2817/2818 17010G15KT 9999 SCT020 QNH3025INS BECMG 2902/2903 17006KT 9999 SCT010 QNH3017INS TX19/2820Z TN07/2811Z
KHOU
(6.7 nm NW from KEFD)
280859Z 2809/2906 VRB03KT P6SM SKC FM281700 15010KT P6SM SCT025 FM282300 18006KT P6SM SCT020
  Airport Weather Conditions for T41

Current weather conditions are
not available for T41


The nearest NOAA weather station
is at EFD, (6.2 nm SW from T41)
  
 Current Weather at EFD
48° F
Fair
North winds at 0.0 mph
EFD NOAA Radar

Pressure: 30.39 in
Humidity: 66%
Wind: Calm
Dew Point: 37.4°F
Visibility: 10.00 mi


Airport Weather Forecast for T41

Translated METAR and TAF for KEFD
Translated METAR for KEFD (0942 UTC 28 November 2014)
found at http://aviationweather.gov/adds/metars/
 
METAR text: KEFD 280850Z 00000KT 10SM CLR 09/03 A3039
Conditions at: KEFD (HOUSTON/ELLINGTO, TX, US) observed 0850 UTC 28 November 2014
Temperature: 9.0°C (48°F)
Dewpoint: 3.0°C (37°F) [RH = 66%]
Pressure (altimeter): 30.39 inches Hg (1029.2 mb)
Winds: calm
Visibility: 10 or more miles (16+ km)
Ceiling: at least 12,000 feet AGL
Clouds: sky clear below 12,000 feet AGL
Weather: no significant weather observed at this time
Translated TAF for KEFD
Forecast for: KEFD (HOUSTON/ELLINGTO, TX, US)
TAF Text: TAF KEFD 2804/2910 08009KT 9999 SKC QNH3036INS
Forecast period: 0400 to 1700 UTC 28 November 2014
Forecast type: FROM: standard forecast or significant change
Winds: from the E (80 degrees) at 10 MPH (9 knots; 4.7 m/s)
Visibility: 6 or more miles (10+ km)
Clouds: clear skies
Weather: no significant weather forecast for this period
TAF Text: BECMG 2817/2818 17010G15KT 9999 SCT020 QNH3025INS
Forecast period: 1700 UTC 28 November 2014 to 0200 UTC 29 November 2014
Forecast type: BECOMING: Conditions expected to become as follows by 1800 UTC 28 November 2014
Winds: from the S (170 degrees) at 12 MPH (10 knots; 5.2 m/s)
gusting to 17 MPH (15 knots; 7.8 m/s)
Visibility: 6 or more miles (10+ km)
Clouds: scattered clouds at 2000 feet AGL
Weather: no significant weather forecast for this period
TAF Text: BECMG 2902/2903 17006KT 9999 SCT010 QNH3017INS TX19/2820Z TN07/2811Z
Forecast period: 0200 to 1000 UTC 29 November 2014
Forecast type: BECOMING: Conditions expected to become as follows by 0300 UTC 29 November 2014
Winds: from the S (170 degrees) at 7 MPH (6 knots; 3.1 m/s)
Visibility: 6 or more miles (10+ km)
Clouds: scattered clouds at 1000 feet AGL
Weather: no significant weather forecast for this period

Find All Airport Services Find A Hotel Find A Rental Car Find A Golf Course Find A Restaurant $100 Hamburger



FBO's on the Field
FBO Company Facility Photos Services Transportation Aviation Fuel Prices: Prices include tax
Catering Weather Repair Courtesy Rental Type 100LL JetA JetA+ MOGAS 8087
 
Harvey & Rihn Aviation

This FBO has not yet been rated
FS:Independent
Last Updated: Nov-18
Login to update fuel prices
SS:
Contact Harvey & Rihn AviationMore FBO Information
 
Tri-Star Aviation

This FBO has not yet been rated
FS:Avfuel
Last Updated: Nov-11
Login to update fuel prices
SS:
Contact Tri-Star AviationMore FBO Information
 
Add another FBO Facility Photos Catering Weather Repair Courtesy Rental Type 100LL JetA JetA+ MOGAS 8087
Services Transportation Aviation Fuel Prices: Prices include tax


model-print
model-print
model-print
model-print